createdAt,value
2022-08-12T00:04:48.530Z,100556.06
2022-08-12T00:10:08.589Z,100556.34
2022-08-12T00:15:28.723Z,100553.88
2022-08-12T00:20:48.562Z,100570.38
2022-08-12T00:26:23.272Z,100564.22
2022-08-12T00:31:43.979Z,100561.47
2022-08-12T00:37:13.447Z,100567.19
2022-08-12T00:42:15.649Z,100572.75
2022-08-12T00:47:24.952Z,100571.06
2022-08-12T00:52:27.408Z,100565.63
2022-08-12T00:57:35.692Z,100564.22
2022-08-12T01:02:46.325Z,100564.69
2022-08-12T01:08:06.781Z,100561.69
2022-08-12T01:13:19.325Z,100549.84
2022-08-12T01:18:27.801Z,100561.38
2022-08-12T01:23:40.684Z,100561.19
2022-08-12T01:28:42.736Z,100566.94
2022-08-12T01:34:03.470Z,100559.13
2022-08-12T01:39:05.421Z,100554.19
2022-08-12T01:44:07.169Z,100547.25
2022-08-12T01:49:53.167Z,100548.09
2022-08-12T01:54:54.585Z,100548.66
2022-08-12T02:00:13.647Z,100542.34
2022-08-12T02:06:07.977Z,100551.41
2022-08-12T02:11:22.757Z,100543.56
2022-08-12T02:16:45.237Z,100537.31
2022-08-12T02:21:51.965Z,100541.16
2022-08-12T02:26:53.481Z,100531.00
2022-08-12T02:31:54.924Z,100525.97
2022-08-12T02:36:57.597Z,100523.50
2022-08-12T02:42:04.627Z,100516.06
2022-08-12T02:47:06.281Z,100511.13
2022-08-12T02:52:07.914Z,100501.22
2022-08-12T02:57:09.964Z,100496.50
2022-08-12T03:02:12.974Z,100500.41
2022-08-12T03:07:23.661Z,100508.34
2022-08-12T03:12:36.789Z,100514.59
2022-08-12T03:18:26.377Z,100529.22
2022-08-12T03:23:17.300Z,100526.69
2022-08-12T03:28:50.228Z,100530.84
2022-08-12T03:34:00.766Z,100531.97
2022-08-12T03:39:22.984Z,100544.84
2022-08-12T03:44:57.388Z,100540.16
2022-08-12T03:50:17.156Z,100539.59
2022-08-12T03:55:37.108Z,100535.97
2022-08-12T04:00:38.569Z,100543.94
2022-08-12T04:05:56.119Z,100550.66
2022-08-12T04:11:16.173Z,100551.50
2022-08-12T04:16:17.573Z,100550.03
2022-08-12T04:21:19.293Z,100559.59
2022-08-12T04:26:20.777Z,100562.34
2022-08-12T04:31:36.915Z,100564.03
2022-08-12T04:36:39.294Z,100559.31
2022-08-12T04:41:50.354Z,100563.50
2022-08-12T04:47:00.096Z,100566.31
2022-08-12T04:52:02.654Z,100556.66
2022-08-12T04:57:05.567Z,100557.84
2022-08-12T05:02:09.675Z,100565.38
2022-08-12T05:07:19.334Z,100563.97
2022-08-12T05:12:20.773Z,100575.06
2022-08-12T05:17:27.282Z,100569.97
2022-08-12T05:22:29.771Z,100574.38
2022-08-12T05:27:31.197Z,100573.00
2022-08-12T05:32:32.634Z,100578.72
2022-08-12T05:37:34.653Z,100579.88
2022-08-12T05:42:36.108Z,100574.75
2022-08-12T05:47:53.839Z,100575.22
2022-08-12T05:52:55.691Z,100578.94
2022-08-12T05:57:57.161Z,100584.81
2022-08-12T06:03:01.993Z,100591.41
2022-08-12T06:08:05.853Z,100587.09
2022-08-12T06:13:07.451Z,100591.97
2022-08-12T06:18:13.572Z,100591.72
2022-08-12T06:23:17.801Z,100599.13
2022-08-12T06:28:19.401Z,100605.25
2022-08-12T06:33:23.042Z,100604.56
2022-08-12T06:38:27.189Z,100608.59
2022-08-12T06:43:28.760Z,100614.81
2022-08-12T06:48:50.517Z,100604.63
2022-08-12T06:53:51.920Z,100605.25
2022-08-12T06:58:53.386Z,100604.41
2022-08-12T07:03:55.230Z,100596.16
2022-08-12T07:08:56.639Z,100599.97
2022-08-12T07:14:11.461Z,100603.66
2022-08-12T07:19:14.818Z,100605.94
2022-08-12T07:24:18.126Z,100595.31
2022-08-12T07:29:20.472Z,100600.19
2022-08-12T07:34:23.265Z,100619.81
2022-08-12T07:39:24.714Z,100626.75
2022-08-12T07:44:26.165Z,100624.09
2022-08-12T07:49:28.005Z,100614.44
2022-08-12T07:54:29.517Z,100616.22
2022-08-12T07:59:33.870Z,100610.38
2022-08-12T08:04:54.685Z,100605.53
2022-08-12T08:09:59.979Z,100604.59
2022-08-12T08:15:01.486Z,100607.81
2022-08-12T08:20:04.644Z,100605.72
2022-08-12T08:25:35.095Z,100590.63
2022-08-12T08:30:29.623Z,100592.78
2022-08-12T08:35:45.447Z,100590.47
2022-08-12T08:41:07.119Z,100590.25
2022-08-12T08:46:08.516Z,100580.66
2022-08-12T08:51:09.973Z,100582.06
2022-08-12T08:56:11.685Z,100571.31
2022-08-12T09:01:21.359Z,100562.06
2022-08-12T09:06:36.925Z,100570.03
2022-08-12T09:17:21.037Z,100549.97
2022-08-12T09:22:25.889Z,100538.44
2022-08-12T09:28:03.659Z,100543.97
2022-08-12T09:33:05.273Z,100536.53
2022-08-12T09:38:27.716Z,100532.34
2022-08-12T09:43:53.889Z,100534.56
2022-08-12T09:49:03.970Z,100532.66
2022-08-12T09:54:33.091Z,100521.13
2022-08-12T10:00:16.689Z,100522.47
2022-08-12T10:04:59.390Z,100523.09
2022-08-12T10:10:01.120Z,100514.84
2022-08-12T10:15:02.687Z,100519.00
2022-08-12T10:20:04.712Z,100506.81
2022-08-12T10:26:35.054Z,100499.75
2022-08-12T10:31:05.124Z,100491.47
2022-08-12T10:36:06.991Z,100490.63
2022-08-12T10:41:57.700Z,100493.16
2022-08-12T10:46:50.153Z,100486.84
2022-08-12T10:52:33.367Z,100477.22
2022-08-12T10:57:18.405Z,100473.06
2022-08-12T11:04:26.006Z,100476.94
2022-08-12T11:08:36.676Z,100475.00
2022-08-12T11:13:19.129Z,100462.84
2022-08-12T11:18:40.670Z,100454.56
2022-08-12T11:23:42.079Z,100456.25
2022-08-12T11:28:43.479Z,100445.22
2022-08-12T11:34:05.049Z,100454.31
2022-08-12T11:39:15.128Z,100448.22
2022-08-12T11:44:36.764Z,100444.38
2022-08-12T11:49:45.746Z,100449.06
2022-08-12T11:54:54.313Z,100433.88
2022-08-12T12:05:18.057Z,100427.00
2022-08-12T12:10:20.033Z,100416.81
2022-08-12T12:15:25.252Z,100404.41
2022-08-12T12:20:42.404Z,100411.84
2022-08-12T12:26:07.393Z,100409.53
2022-08-12T12:31:15.144Z,100404.94
2022-08-12T12:36:30.106Z,100396.09
2022-08-12T12:42:41.619Z,100403.19
2022-08-12T12:46:54.846Z,100392.75
2022-08-12T12:52:19.083Z,100390.53
2022-08-12T12:57:17.692Z,100380.59
2022-08-12T13:02:40.319Z,100377.84
2022-08-12T13:07:54.644Z,100376.16
2022-08-12T13:12:56.692Z,100363.53
2022-08-12T13:18:05.034Z,100347.53
2022-08-12T13:23:36.293Z,100357.47
2022-08-12T13:28:30.409Z,100340.09
2022-08-12T13:34:33.816Z,100339.28
2022-08-12T13:38:54.703Z,100342.56
2022-08-12T13:43:59.650Z,100329.34
2022-08-12T13:49:02.662Z,100326.03
2022-08-12T13:54:09.806Z,100324.66
2022-08-12T13:59:13.384Z,100325.78
2022-08-12T14:04:15.808Z,100323.56
2022-08-12T14:09:20.011Z,100311.41
2022-08-12T14:14:21.528Z,100307.59
2022-08-12T14:19:31.698Z,100312.00
2022-08-12T14:24:40.616Z,100307.03
2022-08-12T14:30:05.450Z,100295.47
2022-08-12T14:35:09.601Z,100296.56
2022-08-12T14:40:18.535Z,100297.94
2022-08-12T14:45:22.935Z,100294.94
2022-08-12T14:50:41.198Z,100290.50
2022-08-12T15:01:29.442Z,100280.03
2022-08-12T15:06:44.490Z,100278.94
2022-08-12T15:12:03.584Z,100270.69
2022-08-12T15:17:08.504Z,100269.09
2022-08-12T15:22:38.687Z,100261.91
2022-08-12T15:28:03.814Z,100263.25
2022-08-12T15:32:53.674Z,100254.44
2022-08-12T15:38:09.953Z,100258.06
2022-08-12T15:43:51.485Z,100253.88
2022-08-12T15:48:37.172Z,100257.47
2022-08-12T15:53:56.962Z,100259.44
2022-08-12T15:58:59.443Z,100256.38
2022-08-12T16:04:01.158Z,100261.34
2022-08-12T16:09:02.650Z,100255.53
2022-08-12T16:14:04.052Z,100251.09
2022-08-12T16:19:09.652Z,100244.81
2022-08-12T16:24:28.713Z,100243.94
2022-08-12T16:29:53.056Z,100248.94
2022-08-12T16:34:57.714Z,100248.34
2022-08-12T16:40:04.824Z,100241.47
2022-08-12T16:45:08.697Z,100244.75
2022-08-12T16:50:15.013Z,100240.63
2022-08-12T16:55:16.588Z,100241.41
2022-08-12T17:00:20.249Z,100234.56
2022-08-12T17:05:24.959Z,100227.69
2022-08-12T17:10:35.558Z,100224.63
2022-08-12T17:15:56.989Z,100223.81
2022-08-12T17:21:02.545Z,100216.91
2022-08-12T17:26:06.069Z,100219.69
2022-08-12T17:31:07.509Z,100207.28
2022-08-12T17:36:10.720Z,100212.78
2022-08-12T17:41:22.447Z,100214.47
2022-08-12T17:46:33.086Z,100221.59
2022-08-12T17:51:35.503Z,100224.91
2022-08-12T17:56:52.097Z,100222.44
2022-08-12T18:01:53.525Z,100229.03
2022-08-12T18:06:55.698Z,100242.25
2022-08-12T18:12:15.665Z,100229.84
2022-08-12T18:17:30.098Z,100241.13
2022-08-12T18:22:32.810Z,100246.38
2022-08-12T18:27:44.091Z,100252.44
2022-08-12T18:32:58.429Z,100255.75
2022-08-12T18:38:02.565Z,100262.63
2022-08-12T18:43:04.946Z,100268.97
2022-08-12T18:48:06.905Z,100267.31
2022-08-12T18:53:09.676Z,100263.72
2022-08-12T18:58:33.393Z,100274.75
2022-08-12T19:03:39.952Z,100270.06
2022-08-12T19:08:47.152Z,100278.34
2022-08-12T19:14:07.445Z,100278.88
2022-08-12T19:19:14.026Z,100280.50
2022-08-12T19:24:39.312Z,100288.53
2022-08-12T19:29:44.233Z,100286.00
2022-08-12T19:36:06.963Z,100295.66
2022-08-12T19:40:31.315Z,100288.47
2022-08-12T19:45:43.841Z,100295.94
2022-08-12T19:50:53.185Z,100279.13
2022-08-12T19:55:55.202Z,100285.47
2022-08-12T20:00:56.699Z,100286.25
2022-08-12T20:06:06.099Z,100290.13
2022-08-12T20:12:13.401Z,100288.47
2022-08-12T20:21:58.985Z,100286.28
2022-08-12T20:27:02.105Z,100288.16
2022-08-12T20:32:04.565Z,100286.00
2022-08-12T20:37:06.594Z,100288.47
2022-08-12T20:42:11.738Z,100286.25
2022-08-12T20:47:17.900Z,100289.84
2022-08-12T20:52:22.380Z,100286.28
2022-08-12T20:57:23.843Z,100290.38
2022-08-12T21:02:30.327Z,100295.09
2022-08-12T21:07:34.261Z,100287.91
2022-08-12T21:12:42.218Z,100287.38
2022-08-12T21:18:00.554Z,100292.59
2022-08-12T21:23:09.518Z,100287.63
2022-08-12T21:28:10.919Z,100287.06
2022-08-12T21:33:17.058Z,100289.59
2022-08-12T21:38:18.689Z,100292.88
2022-08-12T21:43:21.146Z,100291.75
2022-08-12T21:48:25.297Z,100292.88
2022-08-12T21:54:05.824Z,100289.84
2022-08-12T21:58:49.377Z,100289.00
2022-08-12T22:04:11.318Z,100300.28
2022-08-12T22:09:16.999Z,100297.00
2022-08-12T22:14:23.675Z,100304.13
2022-08-12T22:19:26.963Z,100304.41
2022-08-12T22:24:30.155Z,100311.00
2022-08-12T22:29:50.649Z,100316.25
2022-08-12T22:35:12.020Z,100313.22
2022-08-12T22:40:23.960Z,100309.09
2022-08-12T22:45:56.236Z,100312.81
2022-08-12T22:51:00.353Z,100306.00
2022-08-12T22:56:06.411Z,100312.59
2022-08-12T23:01:10.480Z,100314.25
2022-08-12T23:06:11.936Z,100316.19
2022-08-12T23:11:13.485Z,100314.25
2022-08-12T23:16:29.410Z,100304.50
2022-08-12T23:22:03.302Z,100301.47
2022-08-12T23:27:12.930Z,100303.91
2022-08-12T23:32:35.366Z,100302.28
2022-08-12T23:37:46.991Z,100296.78
2022-08-12T23:42:55.058Z,100298.69
2022-08-12T23:47:59.664Z,100290.41
2022-08-12T23:53:03.382Z,100290.72
2022-08-12T23:58:18.427Z,100288.19
